createdAt,value
2023-02-15T00:02:01.292Z,100.00
2023-02-15T00:04:47.012Z,100.00
2023-02-15T00:07:17.971Z,100.00
2023-02-15T00:09:46.508Z,100.00
2023-02-15T00:12:12.929Z,100.00
2023-02-15T00:14:39.315Z,100.00
2023-02-15T00:17:05.742Z,100.00
2023-02-15T00:19:32.117Z,100.00
2023-02-15T00:21:58.552Z,100.00
2023-02-15T00:24:25.071Z,100.00
2023-02-15T00:26:51.642Z,100.00
2023-02-15T00:29:19.847Z,100.00
2023-02-15T00:31:46.677Z,100.00
2023-02-15T00:34:21.682Z,100.00
2023-02-15T00:36:48.634Z,100.00
2023-02-15T00:39:16.266Z,100.00
2023-02-15T00:41:43.509Z,100.00
2023-02-15T00:44:10.167Z,100.00
2023-02-15T00:46:37.128Z,100.00
2023-02-15T00:49:04.509Z,100.00
2023-02-15T00:51:31.124Z,100.00
2023-02-15T00:53:57.551Z,100.00
2023-02-15T00:56:24.007Z,100.00
2023-02-15T00:58:50.654Z,100.00
2023-02-15T01:01:19.542Z,100.00
2023-02-15T01:03:47.548Z,100.00
2023-02-15T01:06:15.615Z,100.00
2023-02-15T01:08:42.224Z,100.00
2023-02-15T01:11:22.979Z,100.00
2023-02-15T01:13:57.813Z,100.00
2023-02-15T01:16:26.289Z,100.00
2023-02-15T01:18:52.926Z,100.00
2023-02-15T01:21:21.696Z,100.00
2023-02-15T01:23:48.576Z,100.00
2023-02-15T01:26:15.704Z,100.00
2023-02-15T01:28:42.217Z,100.00
2023-02-15T01:31:18.057Z,100.00
2023-02-15T01:33:45.075Z,100.00
2023-02-15T01:36:11.790Z,100.00
2023-02-15T01:38:38.462Z,100.00
2023-02-15T01:41:23.420Z,100.00
2023-02-15T01:43:55.753Z,100.00
2023-02-15T01:46:46.223Z,100.00
2023-02-15T01:49:20.010Z,100.00
2023-02-15T01:51:49.724Z,100.00
2023-02-15T01:54:25.492Z,100.00
2023-02-15T01:56:52.362Z,100.00
2023-02-15T01:59:24.318Z,100.00
2023-02-15T02:01:55.365Z,100.00
2023-02-15T02:04:34.115Z,100.00
2023-02-15T02:07:01.438Z,100.00
2023-02-15T02:09:27.998Z,100.00
2023-02-15T02:11:57.409Z,100.00
2023-02-15T02:14:25.575Z,100.00
2023-02-15T02:17:17.025Z,100.00
2023-02-15T02:20:27.459Z,100.00
2023-02-15T02:23:25.183Z,100.00
2023-02-15T02:26:22.107Z,100.00
2023-02-15T02:29:33.209Z,100.00
2023-02-15T02:32:02.371Z,100.00
2023-02-15T02:35:01.214Z,100.00
2023-02-15T02:38:04.795Z,100.00
2023-02-15T02:40:44.545Z,100.00
2023-02-15T02:43:13.956Z,100.00
2023-02-15T02:45:55.433Z,100.00
2023-02-15T02:48:28.728Z,100.00
2023-02-15T02:50:55.219Z,100.00
2023-02-15T02:53:21.665Z,100.00
2023-02-15T02:55:53.904Z,100.00
2023-02-15T02:58:37.786Z,100.00
2023-02-15T03:01:09.346Z,100.00
2023-02-15T03:03:40.536Z,100.00
2023-02-15T03:06:29.757Z,100.00
2023-02-15T03:09:02.860Z,100.00
2023-02-15T03:11:29.741Z,100.00
2023-02-15T03:13:56.253Z,100.00
2023-02-15T03:16:29.287Z,100.00
2023-02-15T03:19:10.552Z,100.00
2023-02-15T03:21:50.414Z,100.00
2023-02-15T03:24:22.689Z,100.00
2023-02-15T03:26:52.595Z,100.00
2023-02-15T03:29:23.262Z,100.00
2023-02-15T03:31:56.399Z,52.42
2023-02-15T03:34:22.966Z,64.92
2023-02-15T03:37:07.914Z,65.00
2023-02-15T03:39:45.937Z,64.67
2023-02-15T03:42:19.345Z,64.96
2023-02-15T03:45:26.028Z,64.47
2023-02-15T03:47:55.532Z,64.68
2023-02-15T03:50:45.850Z,64.78
2023-02-15T03:53:16.393Z,65.04
2023-02-15T03:55:42.982Z,64.71
2023-02-15T03:58:27.750Z,64.90
2023-02-15T04:01:19.841Z,64.78
2023-02-15T04:04:11.569Z,64.26
2023-02-15T04:06:37.974Z,65.01
2023-02-15T04:09:22.842Z,64.84
2023-02-15T04:11:49.232Z,64.77
2023-02-15T04:14:34.320Z,64.60
2023-02-15T04:17:00.756Z,64.81
2023-02-15T04:19:45.775Z,64.58
2023-02-15T04:22:30.963Z,64.94
2023-02-15T04:25:15.385Z,64.40
2023-02-15T04:27:47.964Z,64.31
2023-02-15T04:30:16.120Z,64.22
2023-02-15T04:32:43.287Z,64.34
2023-02-15T04:35:10.253Z,64.14
2023-02-15T04:37:36.739Z,64.67
2023-02-15T04:40:04.963Z,64.33
2023-02-15T04:42:31.619Z,64.37
2023-02-15T04:44:58.351Z,64.24
2023-02-15T04:47:24.889Z,64.45
2023-02-15T04:49:51.349Z,64.21
2023-02-15T04:52:20.652Z,64.10
2023-02-15T04:54:48.135Z,64.34
2023-02-15T04:57:14.639Z,64.02
2023-02-15T04:59:41.090Z,64.00
2023-02-15T05:02:07.580Z,64.10
2023-02-15T05:04:34.003Z,64.50
2023-02-15T05:07:00.458Z,64.35
2023-02-15T05:09:26.867Z,64.22
2023-02-15T05:11:53.263Z,64.14
2023-02-15T05:14:19.720Z,64.33
2023-02-15T05:16:46.384Z,64.30
2023-02-15T05:19:13.018Z,63.96
2023-02-15T05:21:39.665Z,64.16
2023-02-15T05:24:29.277Z,63.93
2023-02-15T05:27:14.459Z,64.24
2023-02-15T05:29:41.084Z,64.20
2023-02-15T05:32:07.593Z,64.11
2023-02-15T05:34:34.040Z,64.28
2023-02-15T05:37:00.554Z,64.12
2023-02-15T05:39:26.956Z,64.31
2023-02-15T05:41:53.343Z,64.22
2023-02-15T05:44:19.731Z,63.95
2023-02-15T05:46:46.145Z,64.07
2023-02-15T05:49:12.739Z,64.47
2023-02-15T05:51:39.218Z,64.44
2023-02-15T05:54:05.655Z,64.46
2023-02-15T05:56:32.213Z,64.27
2023-02-15T05:58:58.660Z,64.18
2023-02-15T06:01:25.098Z,64.27
2023-02-15T06:03:51.823Z,64.10
2023-02-15T06:06:18.306Z,63.58
2023-02-15T06:08:48.441Z,63.58
2023-02-15T06:11:14.946Z,63.70
2023-02-15T06:13:41.349Z,63.78
2023-02-15T06:16:08.030Z,63.54
2023-02-15T06:18:34.814Z,63.54
2023-02-15T06:21:01.263Z,63.40
2023-02-15T06:23:27.776Z,63.64
2023-02-15T06:25:54.274Z,63.68
2023-02-15T06:28:20.714Z,63.39
2023-02-15T06:30:47.482Z,63.08
2023-02-15T06:33:13.973Z,63.56
2023-02-15T06:35:40.411Z,63.38
2023-02-15T06:38:06.848Z,63.51
2023-02-15T06:40:33.295Z,63.03
2023-02-15T06:42:59.700Z,62.85
2023-02-15T06:45:26.147Z,62.88
2023-02-15T06:47:52.542Z,62.83
2023-02-15T06:50:19.186Z,62.97
2023-02-15T06:52:45.664Z,63.08
2023-02-15T06:55:12.082Z,63.13
2023-02-15T06:57:38.644Z,63.25
2023-02-15T07:00:05.944Z,62.90
2023-02-15T07:02:32.875Z,62.87
2023-02-15T07:04:59.333Z,62.96
2023-02-15T07:07:26.090Z,62.78
2023-02-15T07:09:55.694Z,62.91
2023-02-15T07:12:40.858Z,62.67
2023-02-15T07:15:08.583Z,62.78
2023-02-15T07:17:36.307Z,62.90
2023-02-15T07:20:13.176Z,62.42
2023-02-15T07:22:39.629Z,62.44
2023-02-15T07:25:07.992Z,62.80
2023-02-15T07:27:34.453Z,62.72
2023-02-15T07:30:01.479Z,62.31
2023-02-15T07:32:30.508Z,62.31
2023-02-15T07:34:57.096Z,62.46
2023-02-15T07:37:23.579Z,62.31
2023-02-15T07:39:49.997Z,62.33
2023-02-15T07:42:16.746Z,62.25
2023-02-15T07:44:43.129Z,62.31
2023-02-15T07:47:09.548Z,62.22
2023-02-15T07:49:35.966Z,62.24
2023-02-15T07:52:02.949Z,62.17
2023-02-15T07:54:29.717Z,62.19
2023-02-15T07:56:56.212Z,61.98
2023-02-15T07:59:22.879Z,61.86
2023-02-15T08:01:49.374Z,61.92
2023-02-15T08:04:15.957Z,61.71
2023-02-15T08:06:42.384Z,61.61
2023-02-15T08:09:09.765Z,61.49
2023-02-15T08:11:38.590Z,61.51
2023-02-15T08:14:10.717Z,61.06
2023-02-15T08:16:41.300Z,61.31
2023-02-15T08:19:17.131Z,60.98
2023-02-15T08:21:46.414Z,60.99
2023-02-15T08:24:15.163Z,60.89
2023-02-15T08:26:42.700Z,60.84
2023-02-15T08:29:09.774Z,60.28
2023-02-15T08:31:38.320Z,60.54
2023-02-15T08:34:05.838Z,60.71
2023-02-15T08:36:35.126Z,60.72
2023-02-15T08:39:03.825Z,60.32
2023-02-15T08:41:32.785Z,60.59
2023-02-15T08:44:01.421Z,60.13
2023-02-15T08:46:30.369Z,60.36
2023-02-15T08:48:57.660Z,59.95
2023-02-15T08:51:33.582Z,60.11
2023-02-15T08:54:03.228Z,59.84
2023-02-15T08:56:33.223Z,60.14
2023-02-15T08:59:00.301Z,60.02
2023-02-15T09:01:29.634Z,59.95
2023-02-15T09:03:59.014Z,59.85
2023-02-15T09:06:26.339Z,59.72
2023-02-15T09:08:53.692Z,59.58
2023-02-15T09:11:26.106Z,59.50
2023-02-15T09:13:58.010Z,59.54
2023-02-15T09:16:25.836Z,59.47
2023-02-15T09:18:53.445Z,59.30
2023-02-15T09:21:22.642Z,59.31
2023-02-15T09:23:51.427Z,59.16
2023-02-15T09:26:22.838Z,59.03
2023-02-15T09:28:53.415Z,58.90
2023-02-15T09:31:23.212Z,58.86
2023-02-15T09:33:50.181Z,58.83
2023-02-15T09:36:23.415Z,58.79
2023-02-15T09:39:11.487Z,58.70
2023-02-15T09:42:05.425Z,58.52
2023-02-15T09:45:18.946Z,58.41
2023-02-15T09:48:11.947Z,58.40
2023-02-15T09:50:59.011Z,58.25
2023-02-15T09:53:48.918Z,58.36
2023-02-15T09:56:43.235Z,57.92
2023-02-15T09:59:18.853Z,57.99
2023-02-15T10:02:24.272Z,58.02
2023-02-15T10:05:21.325Z,58.07
2023-02-15T10:08:07.225Z,57.82
2023-02-15T10:10:51.839Z,57.87
2023-02-15T10:13:42.161Z,57.74
2023-02-15T10:16:28.692Z,57.48
2023-02-15T10:19:10.278Z,57.65
2023-02-15T10:21:58.626Z,57.42
2023-02-15T10:24:48.894Z,57.12
2023-02-15T10:27:22.378Z,57.23
2023-02-15T10:30:12.417Z,57.14
2023-02-15T10:33:00.996Z,57.10
2023-02-15T10:35:53.979Z,56.87
2023-02-15T10:38:34.623Z,57.06
2023-02-15T10:41:33.394Z,57.07
2023-02-15T10:44:12.605Z,56.81
2023-02-15T10:46:45.476Z,56.88
2023-02-15T10:49:33.072Z,56.55
2023-02-15T10:52:08.497Z,56.65
2023-02-15T10:55:16.912Z,56.40
2023-02-15T10:58:06.513Z,56.42
2023-02-15T11:00:40.130Z,56.36
2023-02-15T11:03:36.666Z,56.09
2023-02-15T11:06:06.120Z,56.26
2023-02-15T11:08:37.706Z,56.04
2023-02-15T11:11:23.874Z,56.08
2023-02-15T11:13:54.694Z,56.07
2023-02-15T11:16:30.819Z,55.92
2023-02-15T11:19:02.209Z,56.01
2023-02-15T11:21:51.945Z,55.92
2023-02-15T11:24:23.214Z,55.67
2023-02-15T11:27:01.751Z,55.44
2023-02-15T11:29:36.868Z,55.38
2023-02-15T11:32:20.465Z,55.43
2023-02-15T11:34:59.197Z,55.48
2023-02-15T11:37:34.623Z,55.39
2023-02-15T11:40:04.244Z,55.31
2023-02-15T11:42:32.654Z,55.24
2023-02-15T11:45:02.188Z,55.09
2023-02-15T11:47:29.223Z,55.15
2023-02-15T11:49:55.730Z,54.98
2023-02-15T11:52:22.233Z,55.05
2023-02-15T11:54:53.382Z,54.65
2023-02-15T11:57:33.787Z,54.79
2023-02-15T12:00:20.530Z,54.75
2023-02-15T12:02:51.467Z,54.60
2023-02-15T12:05:22.963Z,54.60
2023-02-15T12:08:02.685Z,54.94
2023-02-15T12:10:34.864Z,54.61
2023-02-15T12:13:19.677Z,54.60
2023-02-15T12:15:55.102Z,54.42
2023-02-15T12:18:33.987Z,54.46
2023-02-15T12:21:17.464Z,54.43
2023-02-15T12:23:51.874Z,53.99
2023-02-15T12:26:33.573Z,54.01
2023-02-15T12:29:03.161Z,53.64
2023-02-15T12:31:33.750Z,54.12
2023-02-15T12:34:03.624Z,54.00
2023-02-15T12:36:45.280Z,53.97
2023-02-15T12:39:14.800Z,53.86
2023-02-15T12:42:15.119Z,53.93
2023-02-15T12:45:04.327Z,54.33
2023-02-15T12:47:32.330Z,54.09
2023-02-15T12:50:17.775Z,53.97
2023-02-15T12:52:48.486Z,53.93
2023-02-15T12:55:28.237Z,53.70
2023-02-15T12:58:10.759Z,53.62
2023-02-15T13:00:37.841Z,53.74
2023-02-15T13:03:04.755Z,53.28
2023-02-15T13:05:41.711Z,53.33
2023-02-15T13:08:15.891Z,53.13
2023-02-15T13:10:53.598Z,53.10
2023-02-15T13:13:25.173Z,53.08
2023-02-15T13:15:54.832Z,53.17
2023-02-15T13:18:34.523Z,52.90
2023-02-15T13:21:29.065Z,53.39
2023-02-15T13:24:06.184Z,52.68
2023-02-15T13:26:35.531Z,53.00
2023-02-15T13:29:21.748Z,52.84
2023-02-15T13:31:49.399Z,52.89
2023-02-15T13:34:26.656Z,52.33
2023-02-15T13:37:03.862Z,52.64
2023-02-15T13:39:52.360Z,52.69
2023-02-15T13:42:24.737Z,52.36
2023-02-15T13:45:24.354Z,52.13
2023-02-15T13:48:40.198Z,51.89
2023-02-15T13:51:36.955Z,52.12
2023-02-15T13:54:17.739Z,51.65
2023-02-15T13:57:01.664Z,51.96
2023-02-15T13:59:46.226Z,51.53
2023-02-15T14:02:12.576Z,51.77
2023-02-15T14:05:03.160Z,51.14
2023-02-15T14:07:55.054Z,51.31
2023-02-15T14:10:58.346Z,51.13
2023-02-15T14:13:53.669Z,51.22
2023-02-15T14:19:35.033Z,51.09
2023-02-15T14:22:12.065Z,51.43
2023-02-15T14:24:58.814Z,50.57
2023-02-15T14:27:28.232Z,51.11
2023-02-15T14:30:00.405Z,50.88
2023-02-15T14:32:34.496Z,50.80
2023-02-15T14:35:03.772Z,50.59
2023-02-15T14:37:57.817Z,50.36
2023-02-15T14:40:49.132Z,50.95
2023-02-15T14:43:33.548Z,50.73
2023-02-15T14:46:29.939Z,50.58
2023-02-15T14:48:59.538Z,50.93
2023-02-15T14:51:41.219Z,50.43
2023-02-15T14:54:08.597Z,50.42
2023-02-15T14:56:35.182Z,50.56
2023-02-15T14:59:20.429Z,50.62
2023-02-15T15:02:00.161Z,50.75
2023-02-15T15:04:44.155Z,50.41
2023-02-15T15:07:20.079Z,50.47
2023-02-15T15:10:01.046Z,50.38
2023-02-15T15:12:28.118Z,50.54
2023-02-15T15:14:55.476Z,50.50
2023-02-15T15:17:34.556Z,50.58
2023-02-15T15:20:02.261Z,50.79
2023-02-15T15:22:31.225Z,50.92
2023-02-15T15:24:59.604Z,50.82
2023-02-15T15:27:42.756Z,50.70
2023-02-15T15:30:21.420Z,50.82
2023-02-15T15:32:59.816Z,50.90
2023-02-15T15:36:04.177Z,51.10
2023-02-15T15:39:08.463Z,51.06
2023-02-15T15:41:44.508Z,50.76
2023-02-15T15:44:39.052Z,50.92
2023-02-15T15:47:28.398Z,51.07
2023-02-15T15:49:59.639Z,51.18
2023-02-15T15:52:27.877Z,51.08
2023-02-15T15:55:03.150Z,51.18
2023-02-15T15:57:33.984Z,51.13
2023-02-15T16:00:00.678Z,50.98
2023-02-15T16:02:28.177Z,50.89
2023-02-15T16:04:54.654Z,50.99
2023-02-15T16:07:20.949Z,51.08
2023-02-15T16:09:59.644Z,51.44
2023-02-15T16:12:28.775Z,51.09
2023-02-15T16:14:57.323Z,51.22
2023-02-15T16:17:27.308Z,51.26
2023-02-15T16:20:03.895Z,51.36
2023-02-15T16:22:30.434Z,51.79
2023-02-15T16:25:32.444Z,51.68
2023-02-15T16:28:08.944Z,51.60
2023-02-15T16:30:37.571Z,51.99
2023-02-15T16:33:11.184Z,52.14
2023-02-15T16:35:53.910Z,51.84
2023-02-15T16:38:55.563Z,51.74
2023-02-15T16:41:25.405Z,51.61
2023-02-15T16:43:54.643Z,51.59
2023-02-15T16:46:25.248Z,51.75
2023-02-15T16:48:55.043Z,51.67
2023-02-15T16:51:25.343Z,52.18
2023-02-15T16:53:54.766Z,51.88
2023-02-15T16:56:26.007Z,52.34
2023-02-15T16:58:55.400Z,52.38
2023-02-15T17:01:25.060Z,52.63
2023-02-15T17:04:10.878Z,52.75
2023-02-15T17:06:37.295Z,52.94
2023-02-15T17:09:06.848Z,53.21
2023-02-15T17:11:41.480Z,53.35
2023-02-15T17:14:09.792Z,53.18
2023-02-15T17:16:52.781Z,53.43
2023-02-15T17:19:23.890Z,53.51
2023-02-15T17:21:54.317Z,53.64
2023-02-15T17:24:34.530Z,53.86
2023-02-15T17:27:06.047Z,53.92
2023-02-15T17:29:45.965Z,54.14
2023-02-15T17:32:22.368Z,53.99
2023-02-15T17:34:50.699Z,54.25
2023-02-15T17:37:38.297Z,54.35
2023-02-15T17:40:23.489Z,54.45
2023-02-15T17:42:50.020Z,54.30
2023-02-15T17:45:16.856Z,54.43
2023-02-15T17:47:44.201Z,54.79
2023-02-15T17:50:20.671Z,54.55
2023-02-15T17:52:47.308Z,55.19
2023-02-15T17:55:35.409Z,55.01
2023-02-15T17:58:03.564Z,55.00
2023-02-15T18:00:50.698Z,55.11
2023-02-15T18:03:36.822Z,55.04
2023-02-15T18:06:22.110Z,55.30
2023-02-15T18:09:06.996Z,55.36
2023-02-15T18:11:39.183Z,55.04
2023-02-15T18:14:07.240Z,55.56
2023-02-15T18:16:37.137Z,55.37
2023-02-15T18:19:05.848Z,55.51
2023-02-15T18:21:33.278Z,55.51
2023-02-15T18:23:59.945Z,55.85
2023-02-15T18:26:27.411Z,55.74
2023-02-15T18:28:53.955Z,55.97
2023-02-15T18:31:22.477Z,56.09
2023-02-15T18:33:52.607Z,56.16
2023-02-15T18:36:26.154Z,56.13
2023-02-15T18:38:54.091Z,56.36
2023-02-15T18:41:21.943Z,56.35
2023-02-15T18:43:49.740Z,56.53
2023-02-15T18:46:17.455Z,56.73
2023-02-15T18:48:46.307Z,56.93
2023-02-15T18:51:21.603Z,56.65
2023-02-15T18:53:51.692Z,57.17
2023-02-15T18:56:21.390Z,57.12
2023-02-15T18:58:49.265Z,57.15
2023-02-15T19:01:18.765Z,57.33
2023-02-15T19:03:50.702Z,57.40
2023-02-15T19:06:20.025Z,57.30
2023-02-15T19:08:49.166Z,57.64
2023-02-15T19:11:25.425Z,57.41
2023-02-15T19:13:52.890Z,57.47
2023-02-15T19:16:33.100Z,57.54
2023-02-15T19:19:00.406Z,57.71
2023-02-15T19:21:31.761Z,57.86
2023-02-15T19:24:02.592Z,57.86
2023-02-15T19:26:44.484Z,57.79
2023-02-15T19:29:14.445Z,58.03
2023-02-15T19:31:41.530Z,58.13
2023-02-15T19:34:17.021Z,58.10
2023-02-15T19:36:46.094Z,58.21
2023-02-15T19:39:37.475Z,58.12
2023-02-15T19:42:04.282Z,58.49
2023-02-15T19:44:30.978Z,58.33
2023-02-15T19:46:57.348Z,58.45
2023-02-15T19:49:23.719Z,58.41
2023-02-15T19:51:50.235Z,58.79
2023-02-15T19:54:23.754Z,58.68
2023-02-15T19:56:50.147Z,58.97
2023-02-15T19:59:31.385Z,58.84
2023-02-15T20:01:58.711Z,58.85
2023-02-15T20:04:26.447Z,58.92
2023-02-15T20:06:55.685Z,58.89
2023-02-15T20:09:25.584Z,59.10
2023-02-15T20:11:55.492Z,59.05
2023-02-15T20:14:22.932Z,59.38
2023-02-15T20:16:49.832Z,59.22
2023-02-15T20:19:16.620Z,59.51
2023-02-15T20:21:45.146Z,59.26
2023-02-15T20:24:17.994Z,59.02
2023-02-15T20:26:44.656Z,59.42
2023-02-15T20:29:15.346Z,59.40
2023-02-15T20:31:42.365Z,59.72
2023-02-15T20:34:08.975Z,59.68
2023-02-15T20:36:36.110Z,59.65
2023-02-15T20:39:11.999Z,59.59
2023-02-15T20:41:46.881Z,59.59
2023-02-15T20:44:28.456Z,59.52
2023-02-15T20:46:57.096Z,59.73
2023-02-15T20:49:25.073Z,59.87
2023-02-15T20:51:53.543Z,59.79
2023-02-15T20:54:23.963Z,59.75
2023-02-15T20:56:50.793Z,59.90
2023-02-15T20:59:22.456Z,59.90
2023-02-15T21:01:50.563Z,60.01
2023-02-15T21:04:26.355Z,59.84
2023-02-15T21:06:52.699Z,59.99
2023-02-15T21:09:19.086Z,59.97
2023-02-15T21:11:46.655Z,60.27
2023-02-15T21:14:21.503Z,60.04
2023-02-15T21:16:49.142Z,60.23
2023-02-15T21:19:21.923Z,60.05
2023-02-15T21:21:51.176Z,60.38
2023-02-15T21:24:23.724Z,60.20
2023-02-15T21:26:50.274Z,60.34
2023-02-15T21:29:19.451Z,60.41
2023-02-15T21:31:46.880Z,60.20
2023-02-15T21:34:15.076Z,60.61
2023-02-15T21:36:42.812Z,60.62
2023-02-15T21:39:19.318Z,60.51
2023-02-15T21:42:05.007Z,60.64
2023-02-15T21:44:50.324Z,61.01
2023-02-15T21:47:41.231Z,61.03
2023-02-15T21:50:31.728Z,60.86
2023-02-15T21:52:58.727Z,61.12
2023-02-15T21:55:25.921Z,61.18
2023-02-15T21:57:52.361Z,61.12
2023-02-15T22:00:21.713Z,61.29
2023-02-15T22:02:51.153Z,61.21
2023-02-15T22:05:20.542Z,61.10
2023-02-15T22:07:47.340Z,60.92
2023-02-15T22:10:13.792Z,60.96
2023-02-15T22:12:41.901Z,61.19
2023-02-15T22:15:18.299Z,61.04
2023-02-15T22:17:44.678Z,61.28
2023-02-15T22:20:17.779Z,61.21
2023-02-15T22:22:44.804Z,61.54
2023-02-15T22:25:15.227Z,61.28
2023-02-15T22:27:42.963Z,61.27
2023-02-15T22:30:20.352Z,61.37
2023-02-15T22:32:46.970Z,61.47
2023-02-15T22:35:23.310Z,61.33
2023-02-15T22:37:49.672Z,61.33
2023-02-15T22:40:17.676Z,61.42
2023-02-15T22:42:50.014Z,61.46
2023-02-15T22:45:28.036Z,61.28
2023-02-15T22:47:57.897Z,61.58
2023-02-15T22:50:30.074Z,61.35
2023-02-15T22:52:56.608Z,61.47
2023-02-15T22:55:25.169Z,61.60
2023-02-15T22:57:54.787Z,61.65
2023-02-15T23:00:25.554Z,61.86
2023-02-15T23:02:53.887Z,61.66
2023-02-15T23:05:26.816Z,61.54
2023-02-15T23:07:53.555Z,61.71
2023-02-15T23:10:22.916Z,61.84
2023-02-15T23:13:15.416Z,61.50
2023-02-15T23:15:43.435Z,61.66
2023-02-15T23:18:18.912Z,61.56
2023-02-15T23:20:48.770Z,61.87
2023-02-15T23:23:15.704Z,61.70
2023-02-15T23:25:42.459Z,61.62
2023-02-15T23:28:19.680Z,61.78
2023-02-15T23:30:46.954Z,62.05
2023-02-15T23:33:13.633Z,61.81
2023-02-15T23:35:40.398Z,62.03
2023-02-15T23:38:18.434Z,61.74
2023-02-15T23:41:08.440Z,61.91
2023-02-15T23:43:35.383Z,61.95
2023-02-15T23:46:01.861Z,62.20
2023-02-15T23:48:38.279Z,62.17
2023-02-15T23:51:06.537Z,62.09
2023-02-15T23:53:33.630Z,62.03
2023-02-15T23:56:00.610Z,62.11
2023-02-15T23:58:38.257Z,61.90
